Barnerville, New York
Current Conditions -  °F | °C
As of 2:55 PM on Friday 24 Oct 2014 (Local Time) from KNY0 Reporting Station
Overcast Overcast  
Wind Chill: 11°   Ceiling: 2700
Heat Index: 11°   Visibility: 10mi
Dew Point:   Wind: 13mph
Humidity: 71%   Direction: 310°NW
Pressure: 29.8"   Gusts: 20mph
Location:  42.7023°N, 74.392°W
Report Text: KNY0 241855Z AUTO 31011G17KT 10SM OVC027 11/06 A2980 RMK AO2 T01100059
Loading
Personal Weather Stations






























Interactive Weather Map
Tropical Storm Tracking
New forecast layout! Learn more

10-Day Weather Forecast

Advertisements
Track Severe Weather on mobile